Time;durP1;ratioP1;P1;durP2;ratioP2;P2;SDS_P1;SDS_P2;PMS_P1;PMS_P2;Temp;Humidity;BMP_temperature;BMP_pressure;BME280_temperature;BME280_humidity;BME280_pressure;Samples;Min_cycle;Max_cycle;Signal;HPM_P1;HPM_P2
2022/11/11 00:04:16;;;;;;;;;;;;;;;;;;10348200;28;19918;-80
2022/11/11 00:09:35;;;;;;;;;;;;;;;;;;10357788;28;20128;-79
2022/11/11 00:14:54;;;;;;;;;;;;;;;;;;10358474;28;19922;-77
2022/11/11 00:25:52;;;;;;;;;;;;;;;;;;10375049;28;19941;-78
2022/11/11 00:31:12;;;;;;;;;;;;;;;;;;10361664;28;19921;-78
2022/11/11 00:36:31;;;;;;;;;;;;;;;;;;10361855;28;19917;-79
2022/11/11 00:41:50;;;;;;;;;;;;;;;;;;10359971;28;19925;-78
2022/11/11 00:52:47;;;;;;;;;;;;;;;;;;10358547;28;19926;-78
2022/11/11 00:58:06;;;;;;;;;;;;;;;;;;10348300;28;19921;-79
2022/11/11 01:03:25;;;;;;;;;;;;;;;;;;10356241;28;19925;-77
2022/11/11 01:08:44;;;;;;;;;;;;;;;;;;10359376;28;19929;-77
2022/11/11 01:14:04;;;;;;;;;;;;;;;;;;10363047;28;19918;-77
2022/11/11 01:19:23;;;;;;;;;;;;;;;;;;10345285;28;20343;-79
2022/11/11 01:24:42;;;;;;;;;;;;;;;;;;10350573;28;19917;-77
2022/11/11 01:30:01;;;;;;;;;;;;;;;;;;10345645;28;19958;-80
2022/11/11 01:35:20;;;;;;;;;;;;;;;;;;10355818;28;19948;-79
2022/11/11 01:40:41;;;;;;;;;;;;;;;;;;10332692;28;19922;-80
2022/11/11 01:46:00;;;;;;;;;;;;;;;;;;10345832;28;19929;-78
2022/11/11 01:51:19;;;;;;;;;;;;;;;;;;10340197;28;19922;-77
2022/11/11 01:56:38;;;;;;;;;;;;;;;;;;10393416;28;19949;-80
2022/11/11 02:01:57;;;;;;;;;;;;;;;;;;10376903;28;19925;-79
2022/11/11 02:07:16;;;;;;;;;;;;;;;;;;10385822;28;19929;-81
2022/11/11 02:18:13;;;;;;;;;;;;;;;;;;10396484;28;19937;-80
2022/11/11 02:23:32;;;;;;;;;;;;;;;;;;10401091;28;19913;-81
2022/11/11 02:28:51;;;;;;;;;;;;;;;;;;10393899;28;19914;-80
2022/11/11 02:34:10;;;;;;;;;;;;;;;;;;10394067;28;19906;-79
2022/11/11 02:39:29;;;;;;;;;;;;;;;;;;10357629;28;19925;-77
2022/11/11 02:44:48;;;;;;;;;;;;;;;;;;10330309;28;20016;-77
2022/11/11 02:50:07;;;;;;;;;;;;;;;;;;10323406;28;19922;-78
2022/11/11 02:55:27;;;;;;;;;;;;;;;;;;10351820;28;19925;-78
2022/11/11 03:00:46;;;;;;;;;;;;;;;;;;10337478;28;20305;-76
2022/11/11 03:06:05;;;;;;;;;;;;;;;;;;10361806;28;19933;-79
2022/11/11 03:11:27;;;;;;;;;;;;;;;;;;10353736;28;20016;-78
2022/11/11 03:22:24;;;;;;;;;;;;;;;;;;10350746;28;20004;-79
2022/11/11 03:27:43;;;;;;;;;;;;;;;;;;10348167;28;20466;-77
2022/11/11 03:33:02;;;;;;;;;;;;;;;;;;10357257;28;20016;-77
2022/11/11 03:38:24;;;;;;;;;;;;;;;;;;10338653;28;19921;-76
2022/11/11 03:43:44;;;;;;;;;;;;;;;;;;10357120;28;19921;-77
2022/11/11 03:49:03;;;;;;;;;;;;;;;;;;10337294;28;19929;-77
2022/11/11 03:54:22;;;;;;;;;;;;;;;;;;10357563;28;19922;-77
2022/11/11 03:59:40;;;;;;;;;;;;;;;;;;10346161;28;19925;-76
2022/11/11 04:10:37;;;;;;;;;;;;;;;;;;10347544;28;19922;-77
2022/11/11 04:16:06;;;;;;;;;;;;;;;;;;10351023;28;20115;-76
2022/11/11 04:21:44;;;;;;;;;;;;;;;;;;10346725;28;19921;-79
2022/11/11 04:27:03;;;;;;;;;;;;;;;;;;10358960;28;19930;-79
2022/11/11 04:32:34;;;;;;;;;;;;;;;;;;10344010;28;20011;-78
2022/11/11 04:41:02;;;;;;;;;;;;;;;;;;10353534;28;20367;-77
2022/11/11 04:45:26;;;;;;;;;;;;;;;;;;10350679;28;20004;-77
2022/11/11 04:49:10;;;;;;;;;;;;;;;;;;10343591;28;20386;-78
2022/11/11 04:56:46;;;;;;;;;;;;;;;;;;10385908;28;19926;-77
2022/11/11 05:00:08;;;;;;;;;;;;;;;;;;10349937;28;19926;-78
2022/11/11 05:05:27;;;;;;;;;;;;;;;;;;10351184;28;19961;-76
2022/11/11 05:10:47;;;;;;;;;;;;;;;;;;10337755;28;19925;-77
2022/11/11 05:21:43;;;;;;;;;;;;;;;;;;10342720;28;19917;-78
2022/11/11 05:27:02;;;;;;;;;;;;;;;;;;10340196;28;20381;-77
2022/11/11 05:32:21;;;;;;;;;;;;;;;;;;10343268;28;19940;-78
2022/11/11 05:37:40;;;;;;;;;;;;;;;;;;10343074;28;19922;-78
2022/11/11 05:42:59;;;;;;;;;;;;;;;;;;10365436;28;19921;-77
2022/11/11 05:48:19;;;;;;;;;;;;;;;;;;10387156;28;19929;-78
2022/11/11 05:53:38;;;;;;;;;;;;;;;;;;10400042;28;19917;-78
2022/11/11 05:58:58;;;;;;;;;;;;;;;;;;10356824;28;20289;-79
2022/11/11 06:04:18;;;;;;;;;;;;;;;;;;10348318;28;20305;-78
2022/11/11 06:09:37;;;;;;;;;;;;;;;;;;10343097;28;19930;-79
2022/11/11 06:14:56;;;;;;;;;;;;;;;;;;10351460;28;19922;-78
2022/11/11 06:20:15;;;;;;;;;;;;;;;;;;10348988;28;19921;-79
2022/11/11 06:31:11;;;;;;;;;;;;;;;;;;10373736;28;19921;-79
2022/11/11 06:36:30;;;;;;;;;;;;;;;;;;10348756;28;19926;-79
2022/11/11 06:41:50;;;;;;;;;;;;;;;;;;10379609;28;19921;-79
2022/11/11 06:47:08;;;;;;;;;;;;;;;;;;10364471;28;19929;-79
2022/11/11 06:52:29;;;;;;;;;;;;;;;;;;10360393;28;19921;-79
2022/11/11 06:57:47;;;;;;;;;;;;;;;;;;10377079;28;19921;-78
2022/11/11 07:03:06;;;;;;;;;;;;;;;;;;10355711;28;19921;-78
2022/11/11 07:08:27;;;;;;;;;;;;;;;;;;10347678;28;19934;-76
2022/11/11 07:13:46;;;;;;;;;;;;;;;;;;10346528;28;19961;-77
2022/11/11 07:19:05;;;;;;;;;;;;;;;;;;10341742;28;20145;-77
2022/11/11 07:24:24;;;;;;;;;;;;;;;;;;10379845;28;19925;-77
2022/11/11 07:29:43;;;;;;;;;;;;;;;;;;10367046;28;19925;-78
2022/11/11 07:35:02;;;;;;;;;;;;;;;;;;10355955;28;19945;-78
2022/11/11 07:40:20;;;;;;;;;;;;;;;;;;10370083;28;19921;-77
2022/11/11 07:45:39;;;;;;;;;;;;;;;;;;10363394;28;19925;-78
2022/11/11 07:50:59;;;;;;;;;;;;;;;;;;10354798;28;20332;-80
2022/11/11 07:56:18;;;;;;;;;;;;;;;;;;10364297;28;19917;-80
2022/11/11 08:01:37;;;;;;;;;;;;;;;;;;10346198;28;19922;-80
2022/11/11 08:06:56;;;;;;;;;;;;;;;;;;10349551;28;19925;-80
2022/11/11 08:17:53;;;;;;;;;;;;;;;;;;10347769;28;19926;-80
2022/11/11 08:23:13;;;;;;;;;;;;;;;;;;10353427;28;19925;-78
2022/11/11 08:28:33;;;;;;;;;;;;;;;;;;10340468;28;20162;-77
2022/11/11 08:33:52;;;;;;;;;;;;;;;;;;10352497;28;19996;-79
2022/11/11 08:39:11;;;;;;;;;;;;;;;;;;10351495;28;19922;-78
2022/11/11 08:44:30;;;;;;;;;;;;;;;;;;10358177;28;19930;-79
2022/11/11 08:49:51;;;;;;;;;;;;;;;;;;10351202;28;20373;-79
2022/11/11 08:55:10;;;;;;;;;;;;;;;;;;10354326;28;19922;-79
2022/11/11 09:00:28;;;;;;;;;;;;;;;;;;10362382;28;19922;-79
2022/11/11 09:05:48;;;;;;;;;;;;;;;;;;10404216;28;19934;-78
2022/11/11 09:11:07;;;;;;;;;;;;;;;;;;10408119;28;19901;-78
2022/11/11 09:16:26;;;;;;;;;;;;;;;;;;10401855;28;19933;-80
2022/11/11 09:21:45;;;;;;;;;;;;;;;;;;10361644;28;19972;-80
2022/11/11 09:27:04;;;;;;;;;;;;;;;;;;10355109;28;19925;-81
2022/11/11 09:32:22;;;;;;;;;;;;;;;;;;10354557;28;19921;-81
2022/11/11 09:37:41;;;;;;;;;;;;;;;;;;10346584;28;19921;-79
2022/11/11 09:43:01;;;;;;;;;;;;;;;;;;10358850;28;20371;-80
2022/11/11 09:48:19;;;;;;;;;;;;;;;;;;10354981;28;20016;-80
2022/11/11 09:53:38;;;;;;;;;;;;;;;;;;10335182;28;19921;-79
2022/11/11 09:58:57;;;;;;;;;;;;;;;;;;10342042;28;19922;-81
2022/11/11 10:04:16;;;;;;;;;;;;;;;;;;10352884;28;20307;-81
2022/11/11 10:09:35;;;;;;;;;;;;;;;;;;10340387;28;19933;-79
2022/11/11 10:14:56;;;;;;;;;;;;;;;;;;10386529;28;19925;-78
2022/11/11 10:20:15;;;;;;;;;;;;;;;;;;10386647;28;20068;-80
2022/11/11 10:25:34;;;;;;;;;;;;;;;;;;10383278;28;19925;-81
2022/11/11 10:30:53;;;;;;;;;;;;;;;;;;10342619;28;20369;-83
2022/11/11 10:36:13;;;;;;;;;;;;;;;;;;10364381;28;19922;-81
2022/11/11 10:41:32;;;;;;;;;;;;;;;;;;10361254;28;19953;-83
2022/11/11 10:46:51;;;;;;;;;;;;;;;;;;10370226;28;19926;-80
2022/11/11 10:52:10;;;;;;;;;;;;;;;;;;10341079;28;19922;-80
2022/11/11 10:57:29;;;;;;;;;;;;;;;;;;10346042;28;19921;-82
2022/11/11 11:02:49;;;;;;;;;;;;;;;;;;10361695;28;19977;-79
2022/11/11 11:08:07;;;;;;;;;;;;;;;;;;10369268;28;19926;-80
2022/11/11 11:13:26;;;;;;;;;;;;;;;;;;10359286;28;19921;-83
2022/11/11 11:18:45;;;;;;;;;;;;;;;;;;10343032;28;20351;-82
2022/11/11 11:24:04;;;;;;;;;;;;;;;;;;10352857;28;19921;-81
2022/11/11 11:29:23;;;;;;;;;;;;;;;;;;10348323;28;19930;-82
2022/11/11 11:34:42;;;;;;;;;;;;;;;;;;10368854;28;19989;-80
2022/11/11 11:40:01;;;;;;;;;;;;;;;;;;10374286;28;19918;-80
2022/11/11 11:45:22;;;;;;;;;;;;;;;;;;10373519;28;20082;-81
2022/11/11 11:50:41;;;;;;;;;;;;;;;;;;10367521;28;19929;-81
2022/11/11 11:56:00;;;;;;;;;;;;;;;;;;10359074;28;20258;-82
2022/11/11 12:01:19;;;;;;;;;;;;;;;;;;10353168;28;19925;-82
2022/11/11 12:06:38;;;;;;;;;;;;;;;;;;10360825;28;19921;-82
2022/11/11 12:11:58;;;;;;;;;;;;;;;;;;10375568;28;20011;-80
2022/11/11 12:17:18;;;;;;;;;;;;;;;;;;10399797;28;19965;-79
2022/11/11 12:22:37;;;;;;;;;;;;;;;;;;10413488;28;19949;-81
2022/11/11 12:27:56;;;;;;;;;;;;;;;;;;10407354;28;20000;-79
2022/11/11 12:33:15;;;;;;;;;;;;;;;;;;10401883;28;19917;-80
2022/11/11 12:38:34;;;;;;;;;;;;;;;;;;10411309;28;19977;-81
2022/11/11 12:43:53;;;;;;;;;;;;;;;;;;10395719;28;19917;-81
2022/11/11 12:49:12;;;;;;;;;;;;;;;;;;10389300;28;19930;-80
2022/11/11 12:54:31;;;;;;;;;;;;;;;;;;10401248;28;19925;-81
2022/11/11 12:59:50;;;;;;;;;;;;;;;;;;10374475;28;19957;-80
2022/11/11 13:05:10;;;;;;;;;;;;;;;;;;10372645;28;19917;-78
2022/11/11 13:10:29;;;;;;;;;;;;;;;;;;10378693;28;19930;-80
2022/11/11 13:15:49;;;;;;;;;;;;;;;;;;10377522;28;20472;-81
2022/11/11 13:21:08;;;;;;;;;;;;;;;;;;10366501;28;19926;-80
2022/11/11 13:26:27;;;;;;;;;;;;;;;;;;10355677;28;19926;-81
2022/11/11 13:31:45;;;;;;;;;;;;;;;;;;10357585;28;20020;-78
2022/11/11 13:37:04;;;;;;;;;;;;;;;;;;10357430;28;19925;-83
2022/11/11 13:42:23;;;;;;;;;;;;;;;;;;10349865;28;19921;-81
2022/11/11 13:47:43;;;;;;;;;;;;;;;;;;10354488;28;19988;-80
2022/11/11 13:53:02;;;;;;;;;;;;;;;;;;10351924;28;19917;-80
2022/11/11 13:58:21;;;;;;;;;;;;;;;;;;10361767;28;19909;-81
2022/11/11 14:03:40;;;;;;;;;;;;;;;;;;10375644;28;20797;-79
2022/11/11 14:08:59;;;;;;;;;;;;;;;;;;10396020;28;19913;-79
2022/11/11 14:14:18;;;;;;;;;;;;;;;;;;10390916;28;19910;-83
2022/11/11 14:19:37;;;;;;;;;;;;;;;;;;10380387;28;19917;-79
2022/11/11 14:24:55;;;;;;;;;;;;;;;;;;10382445;28;19917;-79
2022/11/11 14:30:16;;;;;;;;;;;;;;;;;;10346813;28;19930;-81
2022/11/11 14:35:34;;;;;;;;;;;;;;;;;;10367146;28;19922;-81
2022/11/11 14:40:54;;;;;;;;;;;;;;;;;;10376898;28;20412;-81
2022/11/11 14:46:13;;;;;;;;;;;;;;;;;;10385273;28;19929;-80
2022/11/11 14:51:32;;;;;;;;;;;;;;;;;;10374668;28;19930;-81
2022/11/11 14:56:51;;;;;;;;;;;;;;;;;;10370377;28;19918;-80
2022/11/11 15:02:11;;;;;;;;;;;;;;;;;;10374963;28;19929;-81
2022/11/11 15:07:29;;;;;;;;;;;;;;;;;;10372044;28;21175;-81
2022/11/11 15:12:49;;;;;;;;;;;;;;;;;;10368703;28;20310;-79
2022/11/11 15:18:08;;;;;;;;;;;;;;;;;;10360376;28;19947;-79
2022/11/11 15:23:28;;;;;;;;;;;;;;;;;;10364187;28;20004;-79
2022/11/11 15:28:47;;;;;;;;;;;;;;;;;;10354839;28;19926;-76
2022/11/11 15:34:06;;;;;;;;;;;;;;;;;;10388965;28;19917;-80
2022/11/11 15:39:25;;;;;;;;;;;;;;;;;;10385299;28;19925;-78
2022/11/11 15:44:44;;;;;;;;;;;;;;;;;;10374251;28;19922;-81
2022/11/11 15:50:04;;;;;;;;;;;;;;;;;;10362600;28;19926;-80
2022/11/11 15:55:26;;;;;;;;;;;;;;;;;;10369552;28;20582;-80
2022/11/11 16:00:46;;;;;;;;;;;;;;;;;;10348954;28;20445;-80
2022/11/11 16:06:06;;;;;;;;;;;;;;;;;;10365400;28;19929;-81
2022/11/11 16:11:25;;;;;;;;;;;;;;;;;;10371183;28;19925;-82
2022/11/11 16:16:43;;;;;;;;;;;;;;;;;;10375877;28;19921;-82
2022/11/11 16:22:03;;;;;;;;;;;;;;;;;;10367214;28;19953;-82
2022/11/11 16:27:22;;;;;;;;;;;;;;;;;;10371412;28;19930;-80
2022/11/11 16:32:41;;;;;;;;;;;;;;;;;;10395447;28;19917;-81
2022/11/11 16:38:02;;;;;;;;;;;;;;;;;;10374568;28;19917;-85
2022/11/11 16:43:21;;;;;;;;;;;;;;;;;;10384396;28;19906;-83
2022/11/11 16:48:40;;;;;;;;;;;;;;;;;;10392294;28;19929;-83
2022/11/11 16:53:59;;;;;;;;;;;;;;;;;;10396679;28;19905;-81
2022/11/11 16:59:18;;;;;;;;;;;;;;;;;;10385463;28;19922;-85
2022/11/11 17:04:37;;;;;;;;;;;;;;;;;;10530094;23;19925;-84
2022/11/11 17:09:56;;;;;;;;;;;;;;;;;;10388176;28;19953;-82
2022/11/11 17:15:15;;;;;;;;;;;;;;;;;;11571412;22;21236;-82
2022/11/11 17:42:18;;;;;;;;;;;;;;;;;;10338342;23;19985;-83
2022/11/11 17:47:39;;;;;;;;;;;;;;;;;;10397081;28;19925;-84
2022/11/11 17:52:57;;;;;;;;;;;;;;;;;;10391683;28;19930;-84
2022/11/11 17:58:18;;;;;;;;;;;;;;;;;;10388642;28;19968;-84
2022/11/11 18:03:41;;;;;;;;;;;;;;;;;;10483090;22;19942;-82
2022/11/11 18:14:23;;;;;;;;;;;;;;;;;;10631583;22;19953;-82
2022/11/11 18:19:42;;;;;;;;;;;;;;;;;;10559818;23;20460;-87
2022/11/11 18:25:01;;;;;;;;;;;;;;;;;;10385042;28;19925;-86
2022/11/11 18:30:21;;;;;;;;;;;;;;;;;;10361539;28;19966;-85
2022/11/11 18:35:40;;;;;;;;;;;;;;;;;;10373508;28;19921;-84
2022/11/11 18:40:59;;;;;;;;;;;;;;;;;;10374399;28;19921;-85
2022/11/11 18:46:18;;;;;;;;;;;;;;;;;;10443746;28;19917;-81
2022/11/11 18:51:37;;;;;;;;;;;;;;;;;;10439142;28;19905;-81
2022/11/11 18:56:57;;;;;;;;;;;;;;;;;;10441378;28;19906;-82
2022/11/11 19:02:16;;;;;;;;;;;;;;;;;;10723589;23;19997;-84
2022/11/11 19:07:35;;;;;;;;;;;;;;;;;;10386701;28;19934;-80
2022/11/11 19:12:54;;;;;;;;;;;;;;;;;;10381089;28;19925;-85
2022/11/11 19:18:13;;;;;;;;;;;;;;;;;;10371123;28;19917;-85
2022/11/11 19:23:32;;;;;;;;;;;;;;;;;;10388101;28;19913;-81
2022/11/11 19:28:48;;;;;;;;;;;;;;;;;;10626585;23;19933;-83
2022/11/11 19:34:07;;;;;;;;;;;;;;;;;;10372732;28;19905;-84
2022/11/11 19:39:26;;;;;;;;;;;;;;;;;;10380776;28;19921;-84
2022/11/11 19:44:46;;;;;;;;;;;;;;;;;;10384955;28;19925;-84
2022/11/11 19:50:05;;;;;;;;;;;;;;;;;;10399511;28;20759;-84
2022/11/11 19:55:24;;;;;;;;;;;;;;;;;;10396985;28;19973;-84
2022/11/11 20:00:43;;;;;;;;;;;;;;;;;;10418660;28;19906;-85
2022/11/11 20:06:03;;;;;;;;;;;;;;;;;;10416915;28;19910;-84
2022/11/11 20:11:22;;;;;;;;;;;;;;;;;;10362760;28;19934;-81
2022/11/11 20:16:41;;;;;;;;;;;;;;;;;;10344781;28;19918;-83
2022/11/11 20:22:04;;;;;;;;;;;;;;;;;;10339781;28;20649;-81
2022/11/11 20:27:23;;;;;;;;;;;;;;;;;;10343922;28;19922;-84
2022/11/11 20:32:43;;;;;;;;;;;;;;;;;;10354859;28;19925;-82
2022/11/11 20:38:02;;;;;;;;;;;;;;;;;;10349145;28;20433;-82
2022/11/11 20:43:21;;;;;;;;;;;;;;;;;;10374645;28;19945;-81
2022/11/11 20:48:41;;;;;;;;;;;;;;;;;;10364782;28;20421;-83
2022/11/11 20:54:00;;;;;;;;;;;;;;;;;;10349469;28;19913;-83
2022/11/11 20:59:19;;;;;;;;;;;;;;;;;;10363403;28;19949;-83
2022/11/11 21:04:38;;;;;;;;;;;;;;;;;;10349852;28;19918;-83
2022/11/11 21:09:56;;;;;;;;;;;;;;;;;;10348792;28;20009;-87
2022/11/11 21:15:15;;;;;;;;;;;;;;;;;;10337654;28;19926;-81
2022/11/11 21:20:34;;;;;;;;;;;;;;;;;;10354825;28;19919;-82
2022/11/11 21:25:55;;;;;;;;;;;;;;;;;;10350285;28;19957;-82
2022/11/11 21:31:15;;;;;;;;;;;;;;;;;;10330956;28;20429;-82
2022/11/11 21:36:35;;;;;;;;;;;;;;;;;;10330892;28;19926;-83
2022/11/11 21:41:55;;;;;;;;;;;;;;;;;;10325570;28;19992;-83
2022/11/11 21:47:14;;;;;;;;;;;;;;;;;;10318149;28;19930;-83
2022/11/11 21:52:33;;;;;;;;;;;;;;;;;;10329714;28;19922;-86
2022/11/11 21:57:52;;;;;;;;;;;;;;;;;;10356570;28;19966;-80
2022/11/11 22:03:11;;;;;;;;;;;;;;;;;;10356732;28;19906;-79
2022/11/11 22:08:30;;;;;;;;;;;;;;;;;;10341243;28;19985;-82
2022/11/11 22:13:49;;;;;;;;;;;;;;;;;;10314665;28;19939;-83
2022/11/11 22:19:08;;;;;;;;;;;;;;;;;;10332893;28;19962;-82
2022/11/11 22:24:27;;;;;;;;;;;;;;;;;;10327690;28;19926;-83
2022/11/11 22:29:47;;;;;;;;;;;;;;;;;;10303506;28;19926;-83
2022/11/11 22:35:07;;;;;;;;;;;;;;;;;;10320654;28;19923;-84
2022/11/11 22:40:26;;;;;;;;;;;;;;;;;;10304948;28;20012;-82
2022/11/11 22:45:45;;;;;;;;;;;;;;;;;;10304905;28;20101;-82
2022/11/11 22:51:05;;;;;;;;;;;;;;;;;;10307271;28;19926;-83
2022/11/11 22:56:24;;;;;;;;;;;;;;;;;;10311653;28;19922;-82
2022/11/11 23:01:43;;;;;;;;;;;;;;;;;;10302538;28;19918;-81
2022/11/11 23:07:02;;;;;;;;;;;;;;;;;;10316301;28;20002;-83
2022/11/11 23:12:22;;;;;;;;;;;;;;;;;;10344405;28;19921;-82
2022/11/11 23:17:41;;;;;;;;;;;;;;;;;;10332716;28;19935;-82
2022/11/11 23:23:00;;;;;;;;;;;;;;;;;;10327538;28;19922;-84
2022/11/11 23:28:19;;;;;;;;;;;;;;;;;;10346926;28;19913;-83
2022/11/11 23:33:39;;;;;;;;;;;;;;;;;;10326252;28;19922;-82
2022/11/11 23:38:58;;;;;;;;;;;;;;;;;;10323716;28;19988;-80
2022/11/11 23:44:19;;;;;;;;;;;;;;;;;;10365560;28;19906;-80
2022/11/11 23:49:38;;;;;;;;;;;;;;;;;;10370593;28;19925;-81
2022/11/11 23:54:57;;;;;;;;;;;;;;;;;;10336429;28;19922;-83
